• Join FlightAware (Why Join?)
  • Login
  • US Flag 
04:59AM EDT


 

Airport Tracker/Info


-or-


 

Live Flight TrackerFlight Track Log ✈ CES5634 ✈ 23-Apr-2014 ✈ ZWWW / URC - ZSSS / SHA

Flight Track Log - Related Links

Times and Time Zones

All times are in EDT time to prevent confusion due to time zone crossing. See the CES5634 flight status page for this flight to view local times or setup timezone preferences in your user account.

Time Position Orientation Groundspeed Altitude Reporting Facility
EDT Latitude Longitude Course Direction KTS MPH feet Rate Location/Type
09:29AM 42.8194 92.7335 104° East  Level Estimated
09:30AM 42.7816 92.8948 108° East  Level Estimated
09:31AM 42.7435 93.0558 108° East  Level Estimated
09:32AM 42.7053 93.2166 108° East  Level Estimated
09:33AM 42.6668 93.3773 108° East  Level Estimated
09:34AM 42.6280 93.5377 108° East  Level Estimated
09:35AM 42.5891 93.6980 108° East  Level Estimated
09:36AM 42.5499 93.8580 108° East  Level Estimated
09:37AM 42.5105 94.0178 108° East  Level Estimated
09:38AM 42.4709 94.1775 109° East  Level Estimated
09:39AM 42.4311 94.3369 109° East  Level Estimated
09:40AM 42.3910 94.4961 109° East  Level Estimated
09:41AM 42.3507 94.6552 109° East  Level Estimated
09:42AM 42.3102 94.8140 109° East  Level Estimated
09:43AM 42.2695 94.9726 109° East  Level Estimated
09:44AM 42.2286 95.1310 109° East  Level Estimated
09:45AM 42.1875 95.2892 109° East  Level Estimated
09:46AM 42.1461 95.4472 109° East  Level Estimated
09:47AM 42.1045 95.6050 110° East  Level Estimated
09:48AM 42.0627 95.7626 110° East  Level Estimated
09:49AM 42.0207 95.9200 110° East  Level Estimated
09:50AM 41.9785 96.0772 110° East  Level Estimated
09:51AM 41.9360 96.2341 110° East  Level Estimated
09:52AM 41.8934 96.3909 110° East  Level Estimated
09:53AM 41.8505 96.5474 110° East  Level Estimated
09:54AM 41.8074 96.7038 110° East  Level Estimated
09:55AM 41.7641 96.8599 110° East  Level Estimated
09:56AM 41.7206 97.0158 110° East  Level Estimated
09:57AM 41.6769 97.1715 111° Southeast  Level Estimated
09:58AM 41.6330 97.3270 111° Southeast  Level Estimated
09:59AM 41.5888 97.4823 111° Southeast  Level Estimated
10:00AM 41.5445 97.6373 111° Southeast  Level Estimated
10:01AM 41.4999 97.7922 111° Southeast  Level Estimated
10:02AM 41.4552 97.9468 111° Southeast  Level Estimated
10:03AM 41.4102 98.1012 111° Southeast  Level Estimated
10:04AM 41.3650 98.2555 111° Southeast  Level Estimated
10:05AM 41.3197 98.4094 111° Southeast  Level Estimated
10:06AM 41.2741 98.5632 111° Southeast  Level Estimated
10:07AM 41.2283 98.7168 112° Southeast  Level Estimated
10:08AM 41.1823 98.8701 112° Southeast  Level Estimated
10:09AM 41.1361 99.0233 112° Southeast  Level Estimated
10:10AM 41.0897 99.1762 112° Southeast  Level Estimated
10:11AM 41.0431 99.3289 112° Southeast  Level Estimated
10:12AM 40.9963 99.4814 112° Southeast  Level Estimated
10:13AM 40.9493 99.6337 112° Southeast  Level Estimated
10:14AM 40.9021 99.7857 112° Southeast  Level Estimated
10:15AM 40.8547 99.9375 112° Southeast  Level Estimated
10:16AM 40.8071 100.0891 112° Southeast  Level Estimated
10:17AM 40.7593 100.2405 113° Southeast  Level Estimated
10:18AM 40.7113 100.3917 113° Southeast  Level Estimated
10:19AM 40.6631 100.5427 113° Southeast  Level Estimated
10:20AM 40.6147 100.6934 113° Southeast  Level Estimated
10:21AM 40.5662 100.8440 113° Southeast  Level Estimated
10:22AM 40.5174 100.9943 113° Southeast  Level Estimated
10:23AM 40.4684 101.1444 113° Southeast  Level Estimated
10:24AM 40.4193 101.2942 113° Southeast  Level Estimated
10:25AM 40.3699 101.4439 113° Southeast  Level Estimated
10:26AM 40.3203 101.5933 113° Southeast  Level Estimated
10:27AM 40.2706 101.7425 114° Southeast  Level Estimated
10:28AM 40.2207 101.8915 114° Southeast  Level Estimated
10:29AM 40.1705 102.0403 114° Southeast  Level Estimated
10:30AM 40.1202 102.1888 114° Southeast  Level Estimated
10:31AM 40.0697 102.3372 114° Southeast  Level Estimated
10:32AM 40.0190 102.4853 114° Southeast  Level Estimated
10:33AM 39.9681 102.6331 114° Southeast  Level Estimated
10:34AM 39.9171 102.7808 114° Southeast  Level Estimated
10:35AM 39.8658 102.9283 114° Southeast  Level Estimated
10:36AM 39.8144 103.0755 114° Southeast  Level Estimated
10:37AM 39.7627 103.2225 115° Southeast  Level Estimated
10:38AM 39.7109 103.3693 115° Southeast  Level Estimated
10:39AM 39.6589 103.5159 115° Southeast  Level Estimated
10:40AM 39.6067 103.6622 115° Southeast  Level Estimated
10:41AM 39.5544 103.8083 115° Southeast  Level Estimated
10:42AM 39.5018 103.9542 115° Southeast  Level Estimated
10:43AM 39.4491 104.0999 115° Southeast  Level Estimated
10:44AM 39.3962 104.2454 115° Southeast  Level Estimated
10:45AM 39.3431 104.3906 115° Southeast  Level Estimated
10:46AM 39.2898 104.5356 115° Southeast  Level Estimated
10:47AM 39.2364 104.6804 115° Southeast  Level Estimated
10:48AM 39.1827 104.8250 116° Southeast  Level Estimated
10:49AM 39.1289 104.9694 116° Southeast  Level Estimated
10:50AM 39.0749 105.1135 116° Southeast  Level Estimated
10:51AM 39.0207 105.2574 116° Southeast  Level Estimated
10:52AM 38.9664 105.4011 116° Southeast  Level Estimated
10:53AM 38.9119 105.5446 116° Southeast  Level Estimated
10:54AM 38.8572 105.6879 116° Southeast  Level Estimated
10:55AM 38.8023 105.8309 116° Southeast  Level Estimated
10:56AM 38.7473 105.9737 116° Southeast  Level Estimated
10:57AM 38.6921 106.1163 116° Southeast  Level Estimated
10:58AM 38.6367 106.2587 116° Southeast  Level Estimated
10:59AM 38.5811 106.4008 117° Southeast  Level Estimated
11:00AM 38.5254 106.5427 117° Southeast  Level Estimated
11:01AM 38.4695 106.6845 117° Southeast  Level Estimated
11:02AM 38.4134 106.8260 117° Southeast  Level Estimated
11:03AM 38.3572 106.9672 117° Southeast  Level Estimated
11:04AM 38.3008 107.1083 117° Southeast  Level Estimated
11:05AM 38.2442 107.2491 117° Southeast  Level Estimated
11:06AM 38.1874 107.3897 117° Southeast  Level Estimated
11:07AM 38.1305 107.5301 117° Southeast  Level Estimated
11:08AM 38.0734 107.6703 117° Southeast  Level Estimated
11:09AM 38.0162 107.8102 117° Southeast  Level Estimated
11:10AM 37.9588 107.9500 117° Southeast  Level Estimated
11:11AM 37.9012 108.0895 118° Southeast  Level Estimated
11:12AM 37.8434 108.2288 118° Southeast  Level Estimated
11:13AM 37.7855 108.3679 118° Southeast  Level Estimated
11:14AM 37.7274 108.5068 118° Southeast  Level Estimated
11:15AM 37.6692 108.6454 118° Southeast  Level Estimated
11:16AM 37.6108 108.7838 118° Southeast  Level Estimated
11:17AM 37.5522 108.9220 118° Southeast  Level Estimated
11:18AM 37.4935 109.0600 118° Southeast  Level Estimated
11:19AM 37.4346 109.1978 118° Southeast  Level Estimated
11:20AM 37.3756 109.3354 118° Southeast  Level Estimated
11:21AM 37.3164 109.4727 118° Southeast  Level Estimated
11:22AM 37.2570 109.6098 119° Southeast  Level Estimated
11:23AM 37.1975 109.7468 119° Southeast  Level Estimated
11:24AM 37.1379 109.8835 119° Southeast  Level Estimated
11:25AM 37.0780 110.0199 119° Southeast  Level Estimated
11:26AM 37.0180 110.1562 119° Southeast  Level Estimated
11:27AM 36.9579 110.2922 119° Southeast  Level Estimated
11:28AM 36.8976 110.4281 119° Southeast  Level Estimated
11:29AM 36.8372 110.5637 119° Southeast  Level Estimated
11:30AM 36.7766 110.6991 119° Southeast  Level Estimated
11:31AM 36.7158 110.8343 119° Southeast  Level Estimated
11:32AM 36.6549 110.9693 119° Southeast  Level Estimated
11:33AM 36.5938 111.1040 119° Southeast  Level Estimated
11:34AM 36.5326 111.2386 119° Southeast  Level Estimated
11:35AM 36.4712 111.3729 120° Southeast  Level Estimated
11:36AM 36.4097 111.5070 120° Southeast  Level Estimated
11:37AM 36.3481 111.6409 120° Southeast  Level Estimated
11:38AM 36.2863 111.7746 120° Southeast  Level Estimated
11:39AM 36.2243 111.9081 120° Southeast  Level Estimated
11:40AM 36.1622 112.0414 120° Southeast  Level Estimated
11:41AM 36.0999 112.1745 120° Southeast  Level Estimated
11:42AM 36.0375 112.3073 120° Southeast  Level Estimated
11:43AM 35.9750 112.4400 120° Southeast  Level Estimated
11:44AM 35.9123 112.5724 120° Southeast  Level Estimated
11:45AM 35.8494 112.7046 120° Southeast  Level Estimated
11:46AM 35.7864 112.8366 120° Southeast  Level Estimated
11:47AM 35.7233 112.9684 121° Southeast  Level Estimated
11:48AM 35.6600 113.1000 121° Southeast  Level Estimated
11:49AM 35.5966 113.2314 121° Southeast  Level Estimated
11:50AM 35.5331 113.3626 121° Southeast  Level Estimated
11:51AM 35.4694 113.4936 121° Southeast  Level Estimated
11:52AM 35.4055 113.6243 121° Southeast  Level Estimated
11:53AM 35.3415 113.7549 121° Southeast  Level Estimated
11:54AM 35.2774 113.8852 121° Southeast  Level Estimated
11:55AM 35.2132 114.0154 121° Southeast  Level Estimated
11:56AM 35.1488 114.1453 121° Southeast  Level Estimated
11:57AM 35.0842 114.2750 121° Southeast  Level Estimated
11:58AM 35.0195 114.4045 121° Southeast  Level Estimated
11:59AM 34.9547 114.5339 121° Southeast  Level Estimated
12:00PM 34.8898 114.6630 121° Southeast  Level Estimated
12:01PM 34.8247 114.7919 122° Southeast  Level Estimated
12:02PM 34.7594 114.9206 122° Southeast  Level Estimated
12:03PM 34.6941 115.0491 122° Southeast  Level Estimated
12:04PM 34.6286 115.1774 122° Southeast  Level Estimated
12:05PM 34.5630 115.3055 122° Southeast  Level Estimated
12:06PM 34.4972 115.4334 122° Southeast  Level Estimated
12:07PM 34.4313 115.5611 122° Southeast  Level Estimated
12:08PM 34.3653 115.6886 122° Southeast  Level Estimated
12:09PM 34.2991 115.8159 122° Southeast  Level Estimated
12:10PM 34.2328 115.9429 122° Southeast  Level Estimated
12:11PM 34.1664 116.0698 122° Southeast  Level Estimated
12:12PM 34.0999 116.1965 122° Southeast  Level Estimated
12:13PM 34.0332 116.3230 122° Southeast  Level Estimated
12:14PM 33.9664 116.4493 123° Southeast  Level Estimated
12:15PM 33.8994 116.5754 123° Southeast  Level Estimated
12:16PM 33.8324 116.7013 123° Southeast  Level Estimated
12:17PM 33.7652 116.8270 123° Southeast  Level Estimated
12:18PM 33.6978 116.9525 123° Southeast  Level Estimated
12:19PM 33.6304 117.0778 123° Southeast  Level Estimated
12:20PM 33.5628 117.2029 123° Southeast  Level Estimated
12:21PM 33.4951 117.3278 123° Southeast  Level Estimated
12:22PM 33.4273 117.4525 123° Southeast  Level Estimated
12:23PM 33.3593 117.5771 123° Southeast  Level Estimated
12:24PM 33.2913 117.7014 123° Southeast  Level Estimated
12:25PM 33.2231 117.8255 123° Southeast  Level Estimated
12:26PM 33.1547 117.9495 123° Southeast  Level Estimated
12:27PM 33.0863 118.0732 123° Southeast  Level Estimated
12:28PM 33.0177 118.1968 123° Southeast  Level Estimated
12:29PM 32.9490 118.3201 124° Southeast  Level Estimated
12:30PM 32.8802 118.4433 124° Southeast  Level Estimated
12:31PM 32.8053 118.5770 124° Southeast  Level Estimated
12:32PM 32.7302 118.7104 124° Southeast  Level Estimated
12:33PM 32.6550 118.8437 124° Southeast  Level Estimated
12:34PM 32.5796 118.9767 124° Southeast  Level Estimated
12:35PM 32.5041 119.1095 124° Southeast  Level Estimated
12:36PM 32.4285 119.2421 124° Southeast  Level Estimated
12:37PM 32.3527 119.3744 124° Southeast  Level Estimated
12:38PM 32.2767 119.5065 124° Southeast  Level Estimated
12:39PM 32.2007 119.6384 124° Southeast  Level Estimated
12:40PM 32.1245 119.7701 124° Southeast  Level Estimated
12:41PM 32.0482 119.9016 124° Southeast  Level Estimated
12:42PM 31.9717 120.0328 124° Southeast  Level Estimated
12:43PM 31.8951 120.1638 125° Southeast  Level Estimated
12:44PM 31.8183 120.2946 125° Southeast  Level Estimated
12:44PM 31.3564 121.1521 82° East 167 192 4,900  Level FlightAware ADS-B (ZSSS / SHA)
12:44PM 31.3577 121.1634 82° East 174 200 4,500 -1,380 Descending FlightAware ADS-B (ZSSS / SHA)
12:44PM 31.3596 121.1810 82° East 177 204 4,200 -960 Descending FlightAware ADS-B (ZSSS / SHA)
12:44PM 31.3601 121.1863 82° East 177 204 4,100 -1,020 Descending FlightAware ADS-B (ZSSS / SHA)
12:45PM 31.3654 121.2378 84° East 169 194 3,200 -1,020 Descending FlightAware ADS-B (ZSSS / SHA)
12:45PM 31.3668 121.2531 83° East 169 194 2,900 -840 Descending FlightAware ADS-B (ZSSS / SHA)
12:47PM 31.3433 121.3134 132° Southeast 133 153 1,800 -660 Descending FlightAware ADS-B (ZSSS / SHA)
12:47PM 31.3272 121.3244 163° South 134 154 1,700 -120 Descending FlightAware ADS-B (ZSSS / SHA)
12:48PM 31.3160 121.3283 167° South 135 155 1,700  Level FlightAware ADS-B (ZSSS / SHA)
12:48PM 31.3058 121.3300 174° South 135 155 1,700 -240 Level FlightAware ADS-B (ZSSS / SHA)
12:48PM 31.2972 121.3308 176° South 133 153 1,600 -600 Descending FlightAware ADS-B (ZSSS / SHA)
12:48PM 31.2854 121.3316 177° South 135 155 1,400 -840 Descending FlightAware ADS-B (ZSSS / SHA)
12:49PM 31.2727 121.3323 176° South 132 152 1,100 -720 Descending FlightAware ADS-B (ZSSS / SHA)
12:49PM 31.2634 121.3328 177° South 134 154 1,000 -600 Descending FlightAware ADS-B (ZSSS / SHA)
12:49PM 31.2550 121.3332 177° South 134 154 800 -900 Descending FlightAware ADS-B (ZSSS / SHA)
12:49PM 31.2469 121.3336 177° South 135 155 600 -840 Descending FlightAware ADS-B (ZSSS / SHA)
12:50PM 31.2356 121.3343 177° South 135 155 400 -840 Descending FlightAware ADS-B (ZSSS / SHA)
12:52PM 31.1979 121.3363 177° South  Level Estimated